Terminal Aerodrome Forecast
Issued by NWS

Home | Current Version | Previous Version | Text Only | Print | Product List | Glossary On
Versions: 1 2 3 4 5 6 7 8 9 10 11 12 13 14 15 16 17 18 19 20 21
000
FTUS41 KBGM 051731
TAFELM
TAF
KELM 051731Z 0518/0618 VRB04KT P6SM BKN050
     FM060000 VRB02KT P6SM BKN250
      TEMPO 0608/0612 2SM BR SCT002 BKN250
     FM061400 18005KT P6SM SCT045 BKN120=

USA.gov is the U.S. government's official web portal to all federal, state and local government web resources and services.